createdAt,value
2017-05-29T00:00:21.028Z,0
2017-05-29T00:01:01.921Z,0
2017-05-29T00:01:42.818Z,0
2017-05-29T00:02:23.735Z,0
2017-05-29T00:03:04.628Z,0
2017-05-29T00:03:45.529Z,0
2017-05-29T00:04:26.417Z,0
2017-05-29T00:05:07.309Z,0
2017-05-29T00:05:48.215Z,0
2017-05-29T00:06:29.105Z,0
2017-05-29T00:07:09.984Z,0
2017-05-29T00:07:50.885Z,0
2017-05-29T00:08:31.782Z,0
2017-05-29T00:09:12.693Z,0
2017-05-29T00:09:53.576Z,0
2017-05-29T00:10:34.462Z,0
2017-05-29T00:11:15.382Z,0
2017-05-29T00:11:56.297Z,0
2017-05-29T00:12:37.191Z,0
2017-05-29T00:13:18.093Z,0
2017-05-29T00:13:59.006Z,0
2017-05-29T00:14:39.912Z,0
2017-05-29T00:15:20.787Z,0
2017-05-29T00:16:01.678Z,0
2017-05-29T00:16:42.603Z,0
2017-05-29T00:17:23.508Z,0
2017-05-29T00:18:04.415Z,0
2017-05-29T00:18:45.322Z,0
2017-05-29T00:19:26.207Z,0
2017-05-29T00:20:07.259Z,0
2017-05-29T00:20:48.265Z,0
2017-05-29T00:21:29.160Z,0
2017-05-29T00:22:10.062Z,0
2017-05-29T00:22:50.951Z,0
2017-05-29T00:23:31.857Z,0
2017-05-29T00:24:12.761Z,0
2017-05-29T00:24:53.644Z,0
2017-05-29T00:25:34.524Z,0
2017-05-29T00:26:15.404Z,0
2017-05-29T00:26:56.304Z,0
2017-05-29T00:27:37.878Z,0
2017-05-29T00:28:18.788Z,0
2017-05-29T00:28:59.676Z,0
2017-05-29T00:29:40.583Z,0
2017-05-29T00:30:21.465Z,0
2017-05-29T00:31:02.353Z,0
2017-05-29T00:31:43.252Z,0
2017-05-29T00:32:24.162Z,0
2017-05-29T00:33:05.054Z,0
2017-05-29T00:33:45.955Z,0
2017-05-29T00:34:26.837Z,0
2017-05-29T00:35:07.723Z,0
2017-05-29T00:35:48.630Z,0
2017-05-29T00:36:29.516Z,0
2017-05-29T00:37:10.399Z,0
2017-05-29T00:37:51.301Z,0
2017-05-29T00:38:32.188Z,0
2017-05-29T00:39:13.101Z,0
2017-05-29T00:39:53.992Z,0
2017-05-29T00:40:34.885Z,0
2017-05-29T00:41:15.796Z,0
2017-05-29T00:41:56.690Z,0
2017-05-29T00:42:37.574Z,0
2017-05-29T00:43:18.477Z,0
2017-05-29T00:43:59.369Z,0
2017-05-29T00:44:40.267Z,0
2017-05-29T00:45:21.175Z,0
2017-05-29T00:46:02.045Z,0
2017-05-29T00:46:42.927Z,0
2017-05-29T00:47:23.828Z,0
2017-05-29T00:48:04.726Z,0
2017-05-29T00:48:45.617Z,0
2017-05-29T00:49:26.505Z,0
2017-05-29T00:50:07.419Z,0
2017-05-29T00:50:48.321Z,0
2017-05-29T00:51:29.212Z,0
2017-05-29T00:52:10.114Z,0
2017-05-29T00:52:51.001Z,0
2017-05-29T00:53:31.884Z,0
2017-05-29T00:54:12.788Z,0
2017-05-29T00:54:53.699Z,0
2017-05-29T00:55:34.596Z,0
2017-05-29T00:56:15.491Z,0
2017-05-29T00:56:56.378Z,0
2017-05-29T00:57:37.269Z,0
2017-05-29T00:58:18.165Z,0
2017-05-29T00:58:59.065Z,0
2017-05-29T00:59:39.961Z,0
2017-05-29T01:00:20.850Z,0
2017-05-29T01:01:01.753Z,0
2017-05-29T01:01:42.661Z,0
2017-05-29T01:02:23.564Z,0
2017-05-29T01:03:04.453Z,0
2017-05-29T01:03:45.354Z,0
2017-05-29T01:04:26.253Z,0
2017-05-29T01:05:07.154Z,0
2017-05-29T01:05:48.093Z,0
2017-05-29T01:06:28.982Z,0
2017-05-29T01:07:09.890Z,0
2017-05-29T01:07:50.806Z,0
2017-05-29T01:08:31.738Z,0
2017-05-29T01:09:12.623Z,0
2017-05-29T01:09:53.512Z,0
2017-05-29T01:10:34.410Z,0
2017-05-29T01:11:15.288Z,0
2017-05-29T01:11:56.181Z,0
2017-05-29T01:12:37.083Z,0
2017-05-29T01:13:17.959Z,0
2017-05-29T01:13:58.919Z,0
2017-05-29T01:14:39.803Z,0
2017-05-29T01:15:20.694Z,0
2017-05-29T01:16:01.583Z,0
2017-05-29T01:16:42.472Z,0
2017-05-29T01:17:23.400Z,0
2017-05-29T01:18:04.280Z,0
2017-05-29T01:18:45.169Z,0
2017-05-29T01:19:26.060Z,0
2017-05-29T01:20:06.982Z,0
2017-05-29T01:20:47.892Z,0
2017-05-29T01:21:28.784Z,0
2017-05-29T01:22:09.697Z,0
2017-05-29T01:22:50.598Z,0
2017-05-29T01:23:31.491Z,0
2017-05-29T01:24:12.380Z,0
2017-05-29T01:24:53.274Z,0
2017-05-29T01:25:34.173Z,0
2017-05-29T01:26:15.076Z,0
2017-05-29T01:26:55.965Z,0
2017-05-29T01:27:36.882Z,0
2017-05-29T01:28:17.760Z,0
2017-05-29T01:28:58.661Z,0
2017-05-29T01:29:39.556Z,0
2017-05-29T01:30:20.430Z,0
2017-05-29T01:31:01.364Z,0
2017-05-29T01:31:42.241Z,0
2017-05-29T01:32:23.111Z,0
2017-05-29T01:33:04.005Z,0
2017-05-29T01:33:44.920Z,0
2017-05-29T01:34:25.810Z,0
2017-05-29T01:35:06.702Z,0
2017-05-29T01:35:47.596Z,0
2017-05-29T01:36:28.496Z,0
2017-05-29T01:37:09.405Z,0
2017-05-29T01:39:18.422Z,0
2017-05-29T01:39:59.305Z,0
2017-05-29T01:40:40.216Z,0
2017-05-29T01:41:21.131Z,0
2017-05-29T01:42:02.045Z,0
2017-05-29T01:42:42.947Z,0
2017-05-29T01:43:23.862Z,0
2017-05-29T01:44:04.759Z,0
2017-05-29T01:44:45.629Z,0
2017-05-29T01:45:26.530Z,0
2017-05-29T01:46:07.416Z,0
2017-05-29T01:46:48.298Z,0
2017-05-29T01:47:29.187Z,0
2017-05-29T01:48:10.096Z,0
2017-05-29T01:48:51.030Z,0
2017-05-29T01:49:31.910Z,0
2017-05-29T01:50:12.793Z,0
2017-05-29T01:50:53.687Z,0
2017-05-29T01:51:34.592Z,0
2017-05-29T01:52:15.469Z,0
2017-05-29T01:52:56.405Z,0
2017-05-29T01:53:37.268Z,0
2017-05-29T01:54:18.152Z,0
2017-05-29T01:54:59.057Z,0
2017-05-29T01:55:39.947Z,0
2017-05-29T01:56:20.834Z,0
2017-05-29T01:57:01.733Z,0
2017-05-29T01:57:42.622Z,0
2017-05-29T01:58:23.525Z,0
2017-05-29T01:59:04.439Z,0
2017-05-29T01:59:45.318Z,0
2017-05-29T02:00:26.214Z,0
2017-05-29T02:01:07.112Z,0
2017-05-29T02:01:47.989Z,0
2017-05-29T02:02:28.905Z,0
2017-05-29T02:03:09.807Z,0
2017-05-29T02:03:50.695Z,0
2017-05-29T02:04:31.599Z,0
2017-05-29T02:05:12.483Z,0
2017-05-29T02:05:53.417Z,0
2017-05-29T02:06:34.285Z,0
2017-05-29T02:07:15.162Z,4
2017-05-29T02:07:56.061Z,0
2017-05-29T02:08:37.003Z,4
2017-05-29T02:09:17.910Z,4
2017-05-29T02:09:58.819Z,4
2017-05-29T02:10:39.734Z,4
2017-05-29T02:11:20.626Z,4
2017-05-29T02:12:01.511Z,4
2017-05-29T02:12:42.409Z,0
2017-05-29T02:13:23.295Z,0
2017-05-29T02:15:42.220Z,4
2017-05-29T02:16:23.104Z,4
2017-05-29T02:17:04.000Z,4
2017-05-29T02:17:44.907Z,4
2017-05-29T02:18:25.808Z,4
2017-05-29T02:19:06.697Z,4
2017-05-29T02:19:47.590Z,8
2017-05-29T02:20:28.481Z,4
2017-05-29T02:21:09.374Z,4
2017-05-29T02:21:50.265Z,8
2017-05-29T02:22:31.150Z,4
2017-05-29T02:23:12.044Z,8
2017-05-29T02:23:52.959Z,8
2017-05-29T02:24:33.840Z,8
2017-05-29T02:25:14.739Z,8
2017-05-29T02:25:55.630Z,12
2017-05-29T02:26:36.519Z,12
2017-05-29T02:27:17.426Z,8
2017-05-29T02:27:58.311Z,12
2017-05-29T02:28:39.199Z,12
2017-05-29T02:29:20.098Z,12
2017-05-29T02:30:00.979Z,12
2017-05-29T02:30:41.873Z,16
2017-05-29T02:31:22.779Z,16
2017-05-29T02:32:03.662Z,16
2017-05-29T02:32:44.549Z,20
2017-05-29T02:33:25.452Z,20
2017-05-29T02:34:06.338Z,24
2017-05-29T02:34:47.241Z,24
2017-05-29T02:35:28.132Z,28
2017-05-29T02:36:09.015Z,28
2017-05-29T02:36:49.924Z,28
2017-05-29T02:37:30.819Z,32
2017-05-29T02:38:11.692Z,32
2017-05-29T02:38:52.597Z,36
2017-05-29T02:39:33.500Z,40
2017-05-29T02:40:14.397Z,40
2017-05-29T02:40:55.301Z,44
2017-05-29T02:41:36.195Z,48
2017-05-29T02:42:17.110Z,52
2017-05-29T02:42:58.155Z,52
2017-05-29T02:43:39.029Z,56
2017-05-29T02:44:19.918Z,60
2017-05-29T02:45:01.043Z,68
2017-05-29T02:46:39.436Z,76
2017-05-29T02:47:20.338Z,80
2017-05-29T02:48:01.233Z,84
2017-05-29T02:48:42.137Z,88
2017-05-29T02:49:23.026Z,96
2017-05-29T02:50:03.911Z,100
2017-05-29T02:50:44.813Z,108
2017-05-29T02:51:25.783Z,112
2017-05-29T02:52:06.738Z,120
2017-05-29T02:52:47.622Z,128
2017-05-29T02:53:28.504Z,136
2017-05-29T02:54:09.414Z,144
2017-05-29T02:54:50.303Z,152
2017-05-29T02:55:31.232Z,156
2017-05-29T02:56:12.109Z,160
2017-05-29T02:56:53.013Z,164
2017-05-29T02:57:33.914Z,172
2017-05-29T02:58:14.791Z,180
2017-05-29T02:58:55.687Z,188
2017-05-29T02:59:36.585Z,200
2017-05-29T03:00:17.469Z,208
2017-05-29T03:00:58.398Z,212
2017-05-29T03:01:39.297Z,216
2017-05-29T03:02:20.744Z,228
2017-05-29T03:03:01.632Z,240
2017-05-29T03:03:42.540Z,248
2017-05-29T03:04:23.428Z,260
2017-05-29T03:05:04.313Z,276
2017-05-29T03:05:45.228Z,284
2017-05-29T03:06:26.111Z,284
2017-05-29T03:07:07.002Z,292
2017-05-29T03:07:47.900Z,308
2017-05-29T03:08:28.795Z,328
2017-05-29T03:09:09.694Z,352
2017-05-29T03:09:50.590Z,372
2017-05-29T03:10:31.476Z,380
2017-05-29T03:11:12.370Z,384
2017-05-29T03:11:53.269Z,392
2017-05-29T03:12:34.146Z,404
2017-05-29T03:13:15.051Z,412
2017-05-29T03:13:55.951Z,424
2017-05-29T03:14:36.846Z,436
2017-05-29T03:15:17.749Z,448
2017-05-29T03:15:58.630Z,464
2017-05-29T03:16:39.531Z,484
2017-05-29T03:17:20.433Z,508
2017-05-29T03:18:01.331Z,528
2017-05-29T03:18:42.242Z,548
2017-05-29T03:19:23.132Z,564
2017-05-29T03:20:04.037Z,580
2017-05-29T03:20:44.932Z,588
2017-05-29T03:21:25.822Z,600
2017-05-29T03:22:06.729Z,616
2017-05-29T03:22:47.618Z,628
2017-05-29T03:23:28.571Z,636
2017-05-29T03:24:09.459Z,652
2017-05-29T03:24:50.373Z,668
2017-05-29T03:25:31.255Z,688
2017-05-29T03:26:12.153Z,704
2017-05-29T03:26:53.064Z,716
2017-05-29T03:27:33.962Z,732
2017-05-29T03:28:14.863Z,744
2017-05-29T03:28:55.744Z,764
2017-05-29T03:29:36.633Z,792
2017-05-29T03:30:17.540Z,820
2017-05-29T03:30:58.424Z,828
2017-05-29T03:31:39.328Z,848
2017-05-29T03:32:20.230Z,868
2017-05-29T03:33:01.105Z,892
2017-05-29T03:33:42.004Z,908
2017-05-29T03:34:22.909Z,916
2017-05-29T03:35:03.799Z,924
2017-05-29T03:35:44.708Z,916
2017-05-29T03:36:25.602Z,916
2017-05-29T03:38:25.459Z,952
2017-05-29T03:39:06.355Z,968
2017-05-29T03:39:47.237Z,988
2017-05-29T03:40:28.145Z,1008
2017-05-29T03:41:09.037Z,1024
2017-05-29T03:41:49.935Z,1044
2017-05-29T03:42:30.835Z,1064
2017-05-29T03:43:11.725Z,1096
2017-05-29T03:43:52.633Z,1120
2017-05-29T03:44:33.523Z,1144
2017-05-29T03:45:14.423Z,1172
2017-05-29T03:45:55.319Z,1208
2017-05-29T03:46:36.220Z,1244
2017-05-29T03:47:17.115Z,1276
2017-05-29T03:47:58.030Z,1308
2017-05-29T03:48:38.904Z,1340
2017-05-29T03:49:19.803Z,1364
2017-05-29T03:50:00.701Z,1404
2017-05-29T03:50:41.584Z,1444
2017-05-29T03:51:22.488Z,1504
2017-05-29T03:52:03.376Z,1548
2017-05-29T03:52:44.278Z,1628
2017-05-29T03:53:25.190Z,1668
2017-05-29T03:54:06.069Z,1700
2017-05-29T03:54:46.982Z,1740
2017-05-29T03:55:27.873Z,1736
2017-05-29T03:56:08.760Z,1680
2017-05-29T03:56:49.672Z,1628
2017-05-29T03:57:30.558Z,1572
2017-05-29T03:58:11.462Z,1528
2017-05-29T03:58:52.351Z,1512
2017-05-29T03:59:33.233Z,1496
2017-05-29T04:00:14.150Z,1504
2017-05-29T04:00:55.032Z,1512
2017-05-29T04:01:35.967Z,1540
2017-05-29T04:02:16.869Z,1576
2017-05-29T04:02:57.766Z,1624
2017-05-29T04:03:38.665Z,1664
2017-05-29T04:05:53.826Z,1700
2017-05-29T04:06:34.704Z,1688
2017-05-29T04:07:15.602Z,1688
2017-05-29T04:07:56.508Z,1716
2017-05-29T04:08:37.379Z,1740
2017-05-29T04:09:18.253Z,1776
2017-05-29T04:09:59.156Z,1808
2017-05-29T04:10:40.045Z,1836
2017-05-29T04:11:20.937Z,1864
2017-05-29T04:12:01.855Z,1892
2017-05-29T04:12:42.738Z,1920
2017-05-29T04:13:23.635Z,1952
2017-05-29T04:14:04.555Z,1976
2017-05-29T04:14:45.421Z,2000
2017-05-29T04:15:26.355Z,2036
2017-05-29T04:16:07.238Z,2060
2017-05-29T04:16:48.139Z,2100
2017-05-29T04:17:29.034Z,2140
2017-05-29T04:18:09.948Z,2176
2017-05-29T04:18:50.867Z,2200
2017-05-29T04:19:31.758Z,2212
2017-05-29T04:20:12.668Z,2228
2017-05-29T04:20:53.550Z,2260
2017-05-29T04:21:34.608Z,2272
2017-05-29T04:22:15.503Z,2292
2017-05-29T04:22:56.406Z,2360
2017-05-29T04:23:37.311Z,2380
2017-05-29T04:24:18.219Z,2416
2017-05-29T04:24:59.109Z,2444
2017-05-29T04:25:40.020Z,2484
2017-05-29T04:26:20.923Z,2520
2017-05-29T04:27:01.843Z,2548
2017-05-29T04:27:42.737Z,2584
2017-05-29T04:28:23.686Z,2616
2017-05-29T04:29:04.558Z,2644
2017-05-29T04:29:45.468Z,2664
2017-05-29T04:30:26.356Z,2680
2017-05-29T04:31:07.262Z,2680
2017-05-29T04:31:48.197Z,2684
2017-05-29T04:32:29.109Z,2708
2017-05-29T04:33:10.005Z,2732
2017-05-29T04:33:50.898Z,2772
2017-05-29T04:34:31.808Z,2792
2017-05-29T04:35:12.692Z,2828
2017-05-29T04:35:53.606Z,2848
2017-05-29T04:36:34.488Z,2868
2017-05-29T04:37:15.392Z,2888
2017-05-29T04:37:56.311Z,2916
2017-05-29T04:38:37.183Z,2928
2017-05-29T04:39:18.124Z,2948
2017-05-29T04:39:59.002Z,2968
2017-05-29T04:40:39.915Z,2992
2017-05-29T04:41:20.809Z,3012
2017-05-29T04:42:01.708Z,3040
2017-05-29T04:42:42.630Z,3076
2017-05-29T04:43:23.548Z,3112
2017-05-29T04:45:17.202Z,3208
2017-05-29T04:45:58.119Z,3236
2017-05-29T04:46:38.985Z,3268
2017-05-29T04:47:19.893Z,3288
2017-05-29T04:48:00.811Z,3316
2017-05-29T04:48:41.705Z,3360
2017-05-29T04:49:22.608Z,3384
2017-05-29T04:50:03.522Z,3432
2017-05-29T04:50:44.405Z,3472
2017-05-29T04:52:53.413Z,3584
2017-05-29T04:53:34.324Z,3612
2017-05-29T04:54:15.221Z,3648
2017-05-29T04:54:56.105Z,3692
2017-05-29T04:55:36.994Z,3728
2017-05-29T04:56:17.899Z,3756
2017-05-29T04:56:58.792Z,3800
2017-05-29T04:57:39.686Z,3840
2017-05-29T04:58:20.590Z,3888
2017-05-29T04:59:01.466Z,3928
2017-05-29T04:59:42.349Z,3968
2017-05-29T05:00:23.248Z,4008
2017-05-29T05:01:04.233Z,4056
2017-05-29T05:01:45.120Z,4100
2017-05-29T05:02:26.036Z,4148
2017-05-29T05:03:06.971Z,4176
2017-05-29T05:03:47.895Z,4208
2017-05-29T05:04:28.797Z,4208
2017-05-29T05:05:09.704Z,4220
2017-05-29T05:05:50.703Z,4232
2017-05-29T05:06:31.539Z,4268
2017-05-29T05:07:12.444Z,4288
2017-05-29T05:07:53.332Z,4316
2017-05-29T05:08:34.234Z,4344
2017-05-29T05:09:15.140Z,4388
2017-05-29T05:09:56.026Z,4436
2017-05-29T05:10:36.914Z,4536
2017-05-29T05:11:17.829Z,4588
2017-05-29T05:11:58.731Z,4668
2017-05-29T05:12:39.631Z,4744
2017-05-29T05:13:20.527Z,4832
2017-05-29T05:14:01.474Z,4904
2017-05-29T05:14:42.319Z,4980
2017-05-29T05:15:23.231Z,5060
2017-05-29T05:16:04.170Z,5132
2017-05-29T05:16:45.079Z,5176
2017-05-29T05:17:26.001Z,5172
2017-05-29T05:18:06.871Z,5136
2017-05-29T05:18:47.779Z,5052
2017-05-29T05:19:28.675Z,5012
2017-05-29T05:20:09.590Z,4920
2017-05-29T05:20:50.487Z,4928
2017-05-29T05:21:31.390Z,4948
2017-05-29T05:22:12.286Z,4960
2017-05-29T05:22:53.247Z,5012
2017-05-29T05:23:34.194Z,5100
2017-05-29T05:24:15.090Z,5116
2017-05-29T05:24:55.986Z,5116
2017-05-29T05:25:36.886Z,5096
2017-05-29T05:26:17.787Z,5000
2017-05-29T05:26:58.688Z,4920
2017-05-29T05:27:39.607Z,4796
2017-05-29T05:28:20.502Z,4668
2017-05-29T05:29:01.394Z,4636
2017-05-29T05:29:42.395Z,4556
2017-05-29T05:30:23.220Z,4452
2017-05-29T05:31:04.148Z,4424
2017-05-29T05:31:45.062Z,4744
2017-05-29T05:32:25.959Z,4984
2017-05-29T05:33:06.854Z,5164
2017-05-29T05:33:47.772Z,5196
2017-05-29T05:34:28.655Z,5120
2017-05-29T05:35:09.564Z,5128
2017-05-29T05:35:50.473Z,5152
2017-05-29T05:36:31.358Z,5044
2017-05-29T05:37:12.267Z,5148
2017-05-29T05:37:53.129Z,5204
2017-05-29T05:38:34.034Z,5244
2017-05-29T05:39:14.942Z,5144
2017-05-29T05:39:55.834Z,5408
2017-05-29T05:40:37.644Z,5452
2017-05-29T05:41:18.542Z,5400
2017-05-29T05:41:59.436Z,5400
2017-05-29T05:42:40.353Z,5392
2017-05-29T05:43:21.246Z,5408
2017-05-29T05:44:02.152Z,5400
2017-05-29T05:46:01.986Z,5552
2017-05-29T05:46:42.893Z,5616
2017-05-29T05:47:23.789Z,5680
2017-05-29T05:48:04.683Z,5676
2017-05-29T05:48:45.587Z,5832
2017-05-29T05:49:26.483Z,5848
2017-05-29T05:50:07.386Z,5956
2017-05-29T05:50:48.283Z,6060
2017-05-29T05:51:29.205Z,6100
2017-05-29T05:52:10.112Z,6288
2017-05-29T05:52:51.004Z,6388
2017-05-29T05:53:31.911Z,6476
2017-05-29T05:54:12.805Z,6560
2017-05-29T05:54:53.704Z,6648
2017-05-29T05:55:34.610Z,6740
2017-05-29T05:56:15.499Z,6736
2017-05-29T05:56:56.403Z,6856
2017-05-29T05:57:37.309Z,7172
2017-05-29T05:58:18.274Z,7416
2017-05-29T05:58:59.221Z,7604
2017-05-29T05:59:40.114Z,7780
2017-05-29T06:00:21.020Z,7912
2017-05-29T06:01:01.911Z,7864
2017-05-29T06:01:42.818Z,7536
2017-05-29T06:02:23.716Z,7544
2017-05-29T06:03:04.621Z,7188
2017-05-29T06:03:45.547Z,7392
2017-05-29T06:04:26.415Z,7740
2017-05-29T06:05:07.320Z,7820
2017-05-29T06:05:48.219Z,7744
2017-05-29T06:06:29.134Z,7984
2017-05-29T06:07:10.014Z,8620
2017-05-29T06:07:50.929Z,9132
2017-05-29T06:08:31.835Z,9252
2017-05-29T06:09:12.766Z,9516
2017-05-29T06:09:53.654Z,9816
2017-05-29T06:10:34.559Z,10340
2017-05-29T06:11:15.451Z,10828
2017-05-29T06:11:56.348Z,11320
2017-05-29T06:12:37.247Z,11788
2017-05-29T06:13:18.226Z,12288
2017-05-29T06:13:59.123Z,12760
2017-05-29T06:14:40.023Z,13152
2017-05-29T06:15:20.918Z,13288
2017-05-29T06:16:01.814Z,13556
2017-05-29T06:16:42.717Z,13576
2017-05-29T06:17:23.607Z,13484
2017-05-29T06:18:04.504Z,13364
2017-05-29T06:18:45.412Z,13268
2017-05-29T06:19:26.316Z,13224
2017-05-29T06:20:07.222Z,12460
2017-05-29T06:20:48.136Z,11428
2017-05-29T06:21:29.047Z,11176
2017-05-29T06:22:09.937Z,12628
2017-05-29T06:22:50.841Z,13284
2017-05-29T06:23:31.835Z,13196
2017-05-29T06:24:12.687Z,13144
2017-05-29T06:24:53.576Z,13012
2017-05-29T06:25:34.486Z,13096
2017-05-29T06:26:15.389Z,12956
2017-05-29T06:26:56.305Z,12904
2017-05-29T06:27:37.226Z,12768
2017-05-29T06:28:18.141Z,12604
2017-05-29T06:28:59.062Z,12448
2017-05-29T06:29:39.976Z,12276
2017-05-29T06:30:20.859Z,12088
2017-05-29T06:31:01.817Z,11944
2017-05-29T06:31:42.735Z,11840
2017-05-29T06:32:23.637Z,11736
2017-05-29T06:33:04.555Z,11676
2017-05-29T06:33:45.461Z,11648
2017-05-29T06:34:26.375Z,11620
2017-05-29T06:35:07.268Z,11624
2017-05-29T06:35:48.176Z,11592
2017-05-29T06:36:29.078Z,11568
2017-05-29T06:37:09.989Z,11232
2017-05-29T06:37:50.892Z,11512
2017-05-29T06:38:31.808Z,11336
2017-05-29T06:39:12.710Z,11648
2017-05-29T06:39:53.646Z,10564
2017-05-29T06:40:34.532Z,9000
2017-05-29T06:41:15.434Z,9568
2017-05-29T06:41:56.336Z,11968
2017-05-29T06:42:37.280Z,11928
2017-05-29T06:43:18.198Z,11816
2017-05-29T06:43:59.104Z,11800
2017-05-29T06:44:40.030Z,11772
2017-05-29T06:45:20.937Z,11780
2017-05-29T06:46:01.843Z,11792
2017-05-29T06:46:42.761Z,11844
2017-05-29T06:47:23.676Z,11872
2017-05-29T06:48:04.586Z,11896
2017-05-29T06:48:45.499Z,11908
2017-05-29T06:49:26.402Z,11924
2017-05-29T06:50:07.312Z,11988
2017-05-29T06:50:48.231Z,12024
2017-05-29T06:51:29.150Z,12084
2017-05-29T06:52:10.036Z,12060
2017-05-29T06:52:50.982Z,12104
2017-05-29T06:53:31.886Z,12160
2017-05-29T06:54:12.793Z,12144
2017-05-29T06:54:53.697Z,12204
2017-05-29T06:55:34.647Z,12204
2017-05-29T06:56:15.549Z,12236
2017-05-29T06:56:56.449Z,12264
2017-05-29T06:57:37.363Z,12284
2017-05-29T06:58:18.275Z,12312
2017-05-29T06:58:59.205Z,12368
2017-05-29T06:59:40.115Z,12424
2017-05-29T07:00:21.022Z,12468
2017-05-29T07:01:01.984Z,12448
2017-05-29T07:02:55.628Z,12508
2017-05-29T07:03:36.539Z,12520
2017-05-29T07:04:17.441Z,12560
2017-05-29T07:04:58.352Z,12592
2017-05-29T07:05:39.262Z,12644
2017-05-29T07:06:20.175Z,12656
2017-05-29T07:07:01.075Z,12672
2017-05-29T07:07:41.981Z,12768
2017-05-29T07:08:22.897Z,12892
2017-05-29T07:09:03.810Z,13016
2017-05-29T07:09:44.726Z,13140
2017-05-29T07:10:25.629Z,13208
2017-05-29T07:11:06.544Z,13248
2017-05-29T07:11:47.458Z,13288
2017-05-29T07:12:28.371Z,13304
2017-05-29T07:13:09.269Z,13412
2017-05-29T07:13:50.182Z,13604
2017-05-29T07:14:31.080Z,14080
2017-05-29T07:15:12.010Z,15232
2017-05-29T07:15:53.048Z,21472
2017-05-29T07:16:33.896Z,32992
2017-05-29T07:17:14.829Z,45856
2017-05-29T07:17:55.889Z,54240
2017-05-29T07:18:36.792Z,53344
2017-05-29T07:19:17.788Z,50848
2017-05-29T07:19:58.721Z,50464
2017-05-29T07:20:39.631Z,51040
2017-05-29T07:21:20.553Z,52832
2017-05-29T07:22:01.582Z,54976
2017-05-29T07:22:42.503Z,56800
2017-05-29T07:23:23.414Z,55360
2017-05-29T07:24:04.318Z,52224
2017-05-29T07:24:45.236Z,47264
2017-05-29T07:25:26.150Z,45056
2017-05-29T07:26:07.070Z,45376
2017-05-29T07:26:48.002Z,48032
2017-05-29T07:27:28.911Z,53024
2017-05-29T07:28:09.812Z,54752
2017-05-29T07:28:50.747Z,55200
2017-05-29T07:29:31.790Z,58368
2017-05-29T07:30:12.729Z,59072
2017-05-29T07:30:53.649Z,60928
2017-05-29T07:31:34.558Z,61600
2017-05-29T07:32:15.469Z,63392
2017-05-29T07:32:56.379Z,62976
2017-05-29T07:33:37.302Z,63616
2017-05-29T07:34:18.221Z,64576
2017-05-29T07:34:59.140Z,64704
2017-05-29T07:35:40.059Z,65536
2017-05-29T07:36:20.972Z,65120
2017-05-29T07:37:01.901Z,65920
2017-05-29T07:37:42.816Z,65568
2017-05-29T07:38:23.754Z,65824
2017-05-29T07:39:04.626Z,65312
2017-05-29T07:39:45.522Z,64896
2017-05-29T07:40:26.420Z,62976
2017-05-29T07:41:07.336Z,64384
2017-05-29T07:41:48.273Z,64448
2017-05-29T07:42:29.225Z,63744
2017-05-29T07:43:10.118Z,62976
2017-05-29T07:43:51.008Z,63136
2017-05-29T07:44:31.921Z,65568
2017-05-29T07:45:12.817Z,64128
2017-05-29T07:45:53.737Z,63712
2017-05-29T07:46:34.621Z,63840
2017-05-29T07:47:15.546Z,64480
2017-05-29T07:47:56.463Z,66976
2017-05-29T07:48:37.361Z,70720
2017-05-29T07:49:18.264Z,77696
2017-05-29T07:49:59.229Z,75744
2017-05-29T07:50:40.142Z,58688
2017-05-29T07:51:21.145Z,36800
2017-05-29T07:52:02.149Z,20288
2017-05-29T07:52:43.047Z,14944
2017-05-29T07:53:23.942Z,14496
2017-05-29T07:54:04.852Z,14356
2017-05-29T07:54:45.764Z,14308
2017-05-29T07:55:26.677Z,14272
2017-05-29T07:56:07.574Z,14272
2017-05-29T07:56:48.475Z,14252
2017-05-29T07:57:29.362Z,14216
2017-05-29T07:58:10.265Z,14164
2017-05-29T07:58:51.195Z,14180
2017-05-29T07:59:32.115Z,14188
2017-05-29T08:00:13.025Z,14288
2017-05-29T08:00:53.948Z,14268
2017-05-29T08:01:34.855Z,14320
2017-05-29T08:02:15.774Z,14312
2017-05-29T08:02:56.691Z,14364
2017-05-29T08:04:55.541Z,14540
2017-05-29T08:05:36.454Z,14492
2017-05-29T08:06:17.370Z,14484
2017-05-29T08:06:58.230Z,14520
2017-05-29T08:07:39.138Z,14584
2017-05-29T08:08:20.040Z,14912
2017-05-29T08:10:13.746Z,38400
2017-05-29T08:10:54.655Z,60704
2017-05-29T08:11:35.567Z,77824
2017-05-29T08:12:16.483Z,77024
2017-05-29T08:12:57.413Z,69472
2017-05-29T08:13:38.327Z,67424
2017-05-29T08:14:19.227Z,68864
2017-05-29T08:15:00.147Z,75776
2017-05-29T08:15:41.046Z,76704
2017-05-29T08:16:21.947Z,77248
2017-05-29T08:17:02.839Z,72544
2017-05-29T08:17:43.764Z,67424
2017-05-29T08:18:24.622Z,67040
2017-05-29T08:19:05.522Z,70432
2017-05-29T08:19:46.467Z,79392
2017-05-29T08:20:27.372Z,79744
2017-05-29T08:21:08.298Z,79808
2017-05-29T08:21:49.202Z,79904
2017-05-29T08:22:30.128Z,80768
2017-05-29T08:23:11.024Z,80384
2017-05-29T08:23:51.927Z,79680
2017-05-29T08:24:32.842Z,76288
2017-05-29T08:25:13.748Z,69408
2017-05-29T08:25:54.644Z,67200
2017-05-29T08:26:35.567Z,71104
2017-05-29T08:27:16.494Z,79904
2017-05-29T08:27:58.031Z,82624
2017-05-29T08:28:38.940Z,83552
2017-05-29T08:29:19.835Z,83072
2017-05-29T08:30:00.742Z,82944
2017-05-29T08:32:15.027Z,84704
2017-05-29T08:32:55.927Z,82720
2017-05-29T08:33:36.840Z,80864
2017-05-29T08:34:17.771Z,78912
2017-05-29T08:34:58.707Z,76672
2017-05-29T08:35:39.626Z,75776
2017-05-29T08:36:20.516Z,73056
2017-05-29T08:37:01.463Z,73856
2017-05-29T08:37:42.355Z,73472
2017-05-29T08:38:23.302Z,75488
2017-05-29T08:39:04.225Z,76768
2017-05-29T08:39:45.133Z,78912
2017-05-29T08:40:26.038Z,75264
2017-05-29T08:41:06.943Z,67552
2017-05-29T08:41:47.877Z,70560
2017-05-29T08:42:28.813Z,77408
2017-05-29T08:43:09.724Z,77824
2017-05-29T08:43:50.647Z,73184
2017-05-29T08:44:31.538Z,71168
2017-05-29T08:45:12.470Z,71488
2017-05-29T08:45:53.357Z,72256
2017-05-29T08:46:34.279Z,74016
2017-05-29T08:47:15.189Z,76480
2017-05-29T08:47:56.202Z,78528
2017-05-29T08:48:37.100Z,81760
2017-05-29T08:49:18.033Z,84320
2017-05-29T08:49:58.986Z,85248
2017-05-29T08:50:39.884Z,85120
2017-05-29T08:51:20.808Z,85536
2017-05-29T08:52:01.733Z,84832
2017-05-29T08:52:42.636Z,84064
2017-05-29T08:53:23.531Z,81952
2017-05-29T08:54:04.447Z,81792
2017-05-29T08:54:45.360Z,81344
2017-05-29T08:55:26.294Z,80896
2017-05-29T08:56:07.226Z,79680
2017-05-29T08:56:48.136Z,73248
2017-05-29T08:57:29.054Z,69984
2017-05-29T08:58:09.979Z,71840
2017-05-29T08:58:50.879Z,76384
2017-05-29T08:59:31.811Z,84288
2017-05-29T09:00:12.731Z,84544
2017-05-29T09:00:53.635Z,85664
2017-05-29T09:01:34.549Z,86496
2017-05-29T09:02:15.468Z,86240
2017-05-29T09:02:56.400Z,87968
2017-05-29T09:03:37.298Z,88928
2017-05-29T09:04:18.225Z,89120
2017-05-29T09:04:59.180Z,88960
2017-05-29T09:05:40.077Z,89408
2017-05-29T09:06:20.985Z,89056
2017-05-29T09:07:01.887Z,89376
2017-05-29T09:07:42.841Z,89152
2017-05-29T09:08:23.763Z,89280
2017-05-29T09:09:04.670Z,89504
2017-05-29T09:09:45.605Z,89472
2017-05-29T09:10:26.576Z,88736
2017-05-29T09:11:07.502Z,88800
2017-05-29T09:11:48.404Z,88320
2017-05-29T09:12:29.369Z,88160
2017-05-29T09:13:10.300Z,89088
2017-05-29T09:13:51.194Z,89408
2017-05-29T09:14:32.123Z,89920
2017-05-29T09:15:13.012Z,88320
2017-05-29T09:15:53.938Z,83488
2017-05-29T09:16:34.870Z,81472
2017-05-29T09:17:15.842Z,79488
2017-05-29T09:17:56.697Z,79968
2017-05-29T09:18:37.611Z,79648
2017-05-29T09:19:18.524Z,75328
2017-05-29T09:19:59.448Z,67456
2017-05-29T09:20:40.367Z,66880
2017-05-29T09:21:21.267Z,70016
2017-05-29T09:22:02.184Z,77952
2017-05-29T09:24:16.494Z,83552
2017-05-29T09:24:57.407Z,85760
2017-05-29T09:25:38.325Z,87552
2017-05-29T09:26:19.225Z,88864
2017-05-29T09:27:00.133Z,90624
2017-05-29T09:27:41.025Z,91904
2017-05-29T09:28:21.970Z,90592
2017-05-29T09:29:02.869Z,93280
2017-05-29T09:29:43.879Z,92672
2017-05-29T09:30:24.771Z,91168
2017-05-29T09:31:05.719Z,90752
2017-05-29T09:31:46.647Z,89600
2017-05-29T09:32:27.547Z,88352
2017-05-29T09:33:08.473Z,85920